createdAt,value
2022-12-03T02:03:28.039Z,8.56
2022-12-03T02:04:32.311Z,9.44
2022-12-03T02:05:36.639Z,5.12
2022-12-03T02:06:41.399Z,9.13
2022-12-03T02:07:45.821Z,6.69
2022-12-03T02:08:51.398Z,8.31
2022-12-03T02:09:57.358Z,8.25
2022-12-03T02:11:07.330Z,7.62
2022-12-03T02:12:12.088Z,7.81
2022-12-03T02:13:16.179Z,6.44
2022-12-03T02:14:22.460Z,7.25
2022-12-03T02:15:27.156Z,7.56
2022-12-03T02:16:32.043Z,6.12
2022-12-03T03:22:19.822Z,8.81
2022-12-03T03:23:25.422Z,6.12
2022-12-03T03:24:29.394Z,4.56
2022-12-03T03:25:33.561Z,6.31
2022-12-03T03:26:39.249Z,6.62
2022-12-03T03:27:44.611Z,5.69
2022-12-03T03:28:51.411Z,6.44
2022-12-03T03:29:56.972Z,5.69
2022-12-03T03:31:04.356Z,6.75
2022-12-03T03:32:08.531Z,5.56
2022-12-03T03:33:15.312Z,6.25
2022-12-03T03:34:19.454Z,5.75
2022-12-03T03:35:25.735Z,5.19
2022-12-03T03:36:30.065Z,5.44
2022-12-03T03:37:34.199Z,7.62
2022-12-03T03:38:39.413Z,7.56
2022-12-03T03:39:43.697Z,5.69
2022-12-03T03:40:50.781Z,5.62
2022-12-03T03:41:54.906Z,4.87
2022-12-03T03:42:59.973Z,4.37
2022-12-03T03:44:07.472Z,4.87
2022-12-03T03:45:11.996Z,7.50
2022-12-03T03:46:17.326Z,5.81
2022-12-03T03:47:23.270Z,5.07
2022-12-03T03:48:27.652Z,5.87
2022-12-03T03:49:31.986Z,6.69
2022-12-03T03:50:36.859Z,3.87
2022-12-03T03:51:41.377Z,7.62
2022-12-03T03:52:47.923Z,6.44
2022-12-03T03:53:53.256Z,2.75
2022-12-03T03:54:57.863Z,6.50
2022-12-03T03:56:01.983Z,7.00
2022-12-03T03:57:06.389Z,6.25
2022-12-03T03:58:11.142Z,6.56
2022-12-03T03:59:15.552Z,6.69
2022-12-03T04:00:20.199Z,6.06
2022-12-03T04:01:25.371Z,8.44
2022-12-03T04:02:29.461Z,7.44
2022-12-03T04:03:34.542Z,7.00
2022-12-03T04:04:38.847Z,5.50
2022-12-03T04:05:43.251Z,6.25
2022-12-03T04:06:48.653Z,5.69
2022-12-03T04:07:53.174Z,3.67
2022-12-03T04:08:57.325Z,5.81
2022-12-03T04:10:01.418Z,7.13
2022-12-03T04:11:05.833Z,5.00
2022-12-03T04:12:11.826Z,6.19
2022-12-03T04:13:17.445Z,5.44
2022-12-03T04:14:23.782Z,4.87
2022-12-03T04:15:34.148Z,5.00
2022-12-03T04:16:38.463Z,2.81
2022-12-03T04:17:42.957Z,6.25
2022-12-03T04:18:47.241Z,5.19
2022-12-03T04:19:51.368Z,5.44
2022-12-03T04:20:55.746Z,5.81
2022-12-03T04:22:00.116Z,5.94
2022-12-03T04:23:04.933Z,5.93
2022-12-03T04:24:11.459Z,5.81
2022-12-03T04:25:15.596Z,5.12
2022-12-03T04:26:20.213Z,5.62
2022-12-03T04:27:25.574Z,6.37
2022-12-03T04:28:29.811Z,6.12
2022-12-03T04:29:34.090Z,6.00
2022-12-03T04:30:38.456Z,5.31
2022-12-03T04:31:42.927Z,5.37
2022-12-03T04:32:47.332Z,4.31
2022-12-03T04:33:52.078Z,5.87
2022-12-03T04:34:56.538Z,5.56
2022-12-03T04:36:02.279Z,5.94
2022-12-03T04:37:06.597Z,6.87
2022-12-03T04:38:12.049Z,3.69
2022-12-03T04:39:16.667Z,5.56
2022-12-03T04:40:20.931Z,6.31
2022-12-03T04:41:25.207Z,6.12
2022-12-03T04:42:29.630Z,4.62
2022-12-03T04:43:35.516Z,5.31
2022-12-03T04:44:39.562Z,7.62
2022-12-03T04:45:43.689Z,6.69
2022-12-03T04:46:48.280Z,6.56
2022-12-03T04:47:52.587Z,7.56
2022-12-03T04:50:07.929Z,7.00
2022-12-03T04:51:12.144Z,7.56
2022-12-03T04:52:17.848Z,8.19
2022-12-03T04:53:22.019Z,8.13
2022-12-03T04:54:26.531Z,7.31
2022-12-03T04:55:30.522Z,9.13
2022-12-03T04:56:34.858Z,8.19
2022-12-03T04:57:39.991Z,10.88
2022-12-03T04:58:44.108Z,7.75
2022-12-03T04:59:48.344Z,8.38
2022-12-03T05:00:52.566Z,6.25
2022-12-03T05:01:56.938Z,6.69
2022-12-03T05:03:01.085Z,7.69
2022-12-03T05:04:05.305Z,8.50
2022-12-03T05:05:12.323Z,8.94
2022-12-03T05:06:16.444Z,9.25
2022-12-03T05:07:20.443Z,6.62
2022-12-03T05:08:24.480Z,7.31
2022-12-03T05:09:28.806Z,8.00
2022-12-03T05:10:33.116Z,10.81
2022-12-03T05:11:37.657Z,7.12
2022-12-03T05:12:42.052Z,4.94
2022-12-03T05:13:46.484Z,5.12
2022-12-03T05:14:50.950Z,7.62
2022-12-03T05:15:55.221Z,9.31
2022-12-03T05:16:59.520Z,9.06
2022-12-03T05:18:03.594Z,10.31
2022-12-03T05:19:12.285Z,10.50
2022-12-03T05:20:16.646Z,7.69
2022-12-03T05:21:20.852Z,9.13
2022-12-03T05:22:24.985Z,9.56
2022-12-03T05:23:28.987Z,8.50
2022-12-03T05:24:33.225Z,9.00
2022-12-03T05:25:37.450Z,10.25
2022-12-03T05:26:41.592Z,8.94
2022-12-03T05:27:45.808Z,9.44
2022-12-03T05:28:50.042Z,9.81
2022-12-03T05:29:54.219Z,10.06
2022-12-03T05:30:58.481Z,9.44
2022-12-03T05:32:02.683Z,11.19
2022-12-03T05:33:06.900Z,10.81
2022-12-03T05:34:11.134Z,9.94
2022-12-03T05:35:17.119Z,10.75
2022-12-03T05:36:21.403Z,11.00
2022-12-03T05:37:25.470Z,8.69
2022-12-03T05:38:30.405Z,7.56
2022-12-03T05:39:34.656Z,9.75
2022-12-03T05:40:38.994Z,11.19
2022-12-03T05:41:43.178Z,11.38
2022-12-03T05:42:47.339Z,10.88
2022-12-03T05:43:51.491Z,9.25
2022-12-03T05:44:56.013Z,10.63
2022-12-03T05:46:00.842Z,8.63
2022-12-03T05:47:05.066Z,10.81
2022-12-03T05:48:12.571Z,10.56
2022-12-03T05:49:16.664Z,8.38
2022-12-03T05:50:25.788Z,8.93
2022-12-03T05:51:28.894Z,12.13
2022-12-03T05:52:33.160Z,10.88
2022-12-03T05:53:37.285Z,13.19
2022-12-03T05:54:41.603Z,11.06
2022-12-03T05:55:45.638Z,11.19
2022-12-03T10:44:19.876Z,7.94
2022-12-03T10:45:25.422Z,9.00
2022-12-03T10:46:31.111Z,8.19
2022-12-03T10:47:36.484Z,6.19
2022-12-03T10:48:42.201Z,8.38
2022-12-03T10:49:50.843Z,7.37
2022-12-03T10:51:06.765Z,8.88
2022-12-03T10:52:19.926Z,6.19
2022-12-03T10:53:36.220Z,5.12
2022-12-03T10:54:40.714Z,8.13
2022-12-03T10:55:44.571Z,8.53
2022-12-03T10:56:51.248Z,7.81
2022-12-03T10:57:56.963Z,7.12
2022-12-03T11:14:55.111Z,7.06
2022-12-03T11:16:06.749Z,6.94
2022-12-03T11:17:10.845Z,7.69
2022-12-03T11:24:09.120Z,8.69
2022-12-03T11:25:32.293Z,7.56
2022-12-03T11:26:42.096Z,6.69
2022-12-03T11:33:31.574Z,8.44
2022-12-03T11:34:53.168Z,8.94
2022-12-03T11:36:13.297Z,7.37
2022-12-03T11:37:19.458Z,8.06
2022-12-03T11:38:52.387Z,7.00
2022-12-03T12:10:14.451Z,9.81
2022-12-03T12:11:35.861Z,9.38
2022-12-03T12:12:45.613Z,8.88
2022-12-03T12:13:57.379Z,8.13
2022-12-03T12:15:22.581Z,8.69
2022-12-03T12:16:37.087Z,6.25
2022-12-03T12:17:42.591Z,7.44
2022-12-03T12:18:53.883Z,7.69
2022-12-03T12:20:14.804Z,6.44
2022-12-03T12:29:59.720Z,7.00
2022-12-03T19:15:06.644Z,15.06
